Time;durP1;ratioP1;P1;durP2;ratioP2;P2;SDS_P1;SDS_P2;PMS_P1;PMS_P2;Temp;Humidity;BMP_temperature;BMP_pressure;BME280_temperature;BME280_humidity;BME280_pressure;Samples;Min_cycle;Max_cycle;Signal;HPM_P1;HPM_P2
2023/05/09 00:01:13;;;;;;;3.50;3.00;;;13.70;99.90;;;;;;5057999;28;20465;-84
2023/05/09 00:03:41;;;;;;;5.38;3.38;;;13.40;99.90;;;;;;5058339;28;20407;-83
2023/05/09 00:06:06;;;;;;;3.20;2.90;;;14.10;99.90;;;;;;5056603;28;20388;-83
2023/05/09 00:08:32;;;;;;;3.83;3.53;;;13.60;99.90;;;;;;5057446;28;20390;-83
2023/05/09 00:10:58;;;;;;;4.03;3.23;;;13.70;99.90;;;;;;5056125;28;20387;-83
2023/05/09 00:13:23;;;;;;;3.78;3.22;;;13.70;99.90;;;;;;5056385;28;20384;-83
2023/05/09 00:15:52;;;;;;;3.65;3.10;;;13.70;99.90;;;;;;5074023;28;20388;-83
2023/05/09 00:18:21;;;;;;;3.60;3.28;;;13.70;99.90;;;;;;5074527;28;20942;-83
2023/05/09 00:20:47;;;;;;;3.50;3.20;;;13.70;99.90;;;;;;5057220;28;20410;-83
2023/05/09 00:23:12;;;;;;;4.82;2.80;;;13.40;99.90;;;;;;5075400;28;20461;-83
2023/05/09 00:25:38;;;;;;;3.67;3.20;;;13.90;99.90;;;;;;5058446;28;20868;-82
2023/05/09 00:28:03;;;;;;;3.27;2.90;;;13.80;99.90;;;;;;5059374;28;20399;-83
2023/05/09 00:30:30;;;;;;;5.30;3.08;;;13.90;99.90;;;;;;5075245;28;20854;-83
2023/05/09 00:32:56;;;;;;;3.00;2.80;;;13.60;99.90;;;;;;5072661;28;20392;-83
2023/05/09 00:35:21;;;;;;;3.27;2.97;;;14.00;99.90;;;;;;5055221;28;20407;-83
2023/05/09 00:37:47;;;;;;;3.50;2.80;;;13.80;99.90;;;;;;5073038;28;20408;-83
2023/05/09 00:40:13;;;;;;;3.77;3.20;;;13.60;99.90;;;;;;5073488;28;20419;-83
2023/05/09 00:42:38;;;;;;;4.93;3.20;;;13.70;99.90;;;;;;5074245;28;20428;-83
2023/05/09 00:45:04;;;;;;;4.70;3.30;;;13.70;99.90;;;;;;5055903;28;20388;-82
2023/05/09 00:47:30;;;;;;;4.07;2.95;;;14.10;99.90;;;;;;5072766;28;20391;-82
2023/05/09 00:49:57;;;;;;;3.80;3.03;;;13.30;99.90;;;;;;5055796;28;20387;-83
2023/05/09 00:52:26;;;;;;;3.95;3.40;;;13.20;99.90;;;;;;5073574;28;20390;-83
2023/05/09 00:54:55;;;;;;;3.47;3.17;;;13.60;99.90;;;;;;5055098;28;20388;-83
2023/05/09 00:57:21;;;;;;;5.45;3.40;;;12.90;99.90;;;;;;5072333;28;20429;-83
2023/05/09 00:59:47;;;;;;;3.30;3.10;;;13.50;99.90;;;;;;5054965;28;20388;-83
2023/05/09 01:02:14;;;;;;;3.10;2.90;;;12.10;99.90;;;;;;5073759;28;20506;-83
2023/05/09 01:04:40;;;;;;;4.10;3.58;;;13.30;99.90;;;;;;5055038;28;20406;-83
2023/05/09 01:07:33;;;;;;;3.70;3.40;;;13.20;99.90;;;;;;5072691;28;20439;-83
2023/05/09 01:10:33;;;;;;;3.53;3.20;;;13.50;99.90;;;;;;5069662;28;20399;-83
2023/05/09 01:13:08;;;;;;;3.60;3.30;;;13.40;99.90;;;;;;5055034;28;20402;-83
2023/05/09 01:15:50;;;;;;;3.50;3.20;;;13.10;99.90;;;;;;5054500;28;20392;-83
2023/05/09 01:18:29;;;;;;;3.97;3.67;;;13.10;99.90;;;;;;5054904;28;20502;-83
2023/05/09 01:21:10;;;;;;;4.27;3.97;;;13.10;99.90;;;;;;5080187;28;20385;-83
2023/05/09 01:24:12;;;;;;;4.10;3.70;;;13.40;99.90;;;;;;5072835;28;20441;-83
2023/05/09 01:26:59;;;;;;;3.88;3.58;;;13.20;99.90;;;;;;5090367;28;20470;-84
2023/05/09 01:29:44;;;;;;;5.00;4.03;;;13.30;99.90;;;;;;5061410;28;20859;-84
2023/05/09 01:32:23;;;;;;;4.07;3.40;;;13.00;99.90;;;;;;5075531;28;20391;-83
2023/05/09 01:34:51;;;;;;;3.47;3.17;;;13.50;99.90;;;;;;5075682;28;20376;-83
2023/05/09 01:37:18;;;;;;;3.50;3.20;;;13.10;99.90;;;;;;5056377;28;20398;-83
2023/05/09 01:39:48;;;;;;;4.10;3.20;;;13.00;99.90;;;;;;5057873;28;20900;-83
2023/05/09 01:42:15;;;;;;;4.50;3.45;;;13.20;99.90;;;;;;5057453;28;20882;-83
2023/05/09 01:44:43;;;;;;;3.42;3.13;;;13.20;99.90;;;;;;5075136;28;20383;-84
2023/05/09 01:47:09;;;;;;;3.03;2.83;;;13.10;99.90;;;;;;5056249;28;20396;-83
2023/05/09 01:49:36;;;;;;;3.67;3.33;;;12.90;99.90;;;;;;5056587;28;20391;-83
2023/05/09 01:52:06;;;;;;;3.30;2.50;;;13.00;99.90;;;;;;5057037;28;20998;-83
2023/05/09 01:54:34;;;;;;;3.60;2.80;;;13.20;99.90;;;;;;5075088;28;20460;-83
2023/05/09 01:57:02;;;;;;;2.78;2.58;;;13.30;99.90;;;;;;5076746;28;20387;-83
2023/05/09 01:59:28;;;;;;;3.20;3.00;;;13.20;99.90;;;;;;5069598;28;20403;-84
2023/05/09 02:01:55;;;;;;;3.43;3.07;;;13.10;99.90;;;;;;5056463;28;20735;-84
2023/05/09 02:04:21;;;;;;;3.30;2.80;;;13.10;99.90;;;;;;5056382;28;20402;-84
2023/05/09 02:06:51;;;;;;;3.45;3.10;;;13.10;99.90;;;;;;5055710;28;20893;-84
2023/05/09 02:09:18;;;;;;;4.70;2.80;;;13.10;99.90;;;;;;5074292;28;20482;-84
2023/05/09 02:11:43;;;;;;;5.93;3.10;;;12.90;99.90;;;;;;5055991;28;20388;-84
2023/05/09 02:14:09;;;;;;;3.27;2.97;;;13.10;99.90;;;;;;5055564;28;20765;-84
2023/05/09 02:16:35;;;;;;;2.77;2.57;;;13.10;99.90;;;;;;5055360;28;20400;-84
2023/05/09 02:19:01;;;;;;;5.60;3.17;;;13.10;99.90;;;;;;5055745;28;20590;-84
2023/05/09 02:21:27;;;;;;;4.57;3.30;;;12.90;99.90;;;;;;5074095;28;20379;-84
2023/05/09 02:23:52;;;;;;;3.60;3.30;;;12.90;99.90;;;;;;5056369;28;20400;-83
2023/05/09 02:26:18;;;;;;;4.82;3.97;;;13.00;99.90;;;;;;5056517;28;20477;-83
2023/05/09 02:28:45;;;;;;;5.18;3.72;;;12.90;99.90;;;;;;5075190;28;20395;-83
2023/05/09 02:31:13;;;;;;;3.40;3.10;;;12.50;99.90;;;;;;5053137;28;20904;-84
2023/05/09 02:33:41;;;;;;;5.10;3.45;;;12.80;99.90;;;;;;5057164;28;20392;-83
2023/05/09 02:36:08;;;;;;;3.92;3.40;;;13.20;99.90;;;;;;5074730;28;20406;-83
2023/05/09 02:38:35;;;;;;;3.92;3.60;;;12.30;99.90;;;;;;5076433;28;20411;-84
2023/05/09 02:41:00;;;;;;;4.90;3.40;;;12.70;99.90;;;;;;5058122;28;20399;-84
2023/05/09 02:43:26;;;;;;;4.70;3.77;;;12.90;99.90;;;;;;5076769;28;20388;-83
2023/05/09 02:45:51;;;;;;;6.50;3.30;;;13.10;99.90;;;;;;5050875;28;20875;-84
2023/05/09 02:48:17;;;;;;;3.40;3.20;;;13.10;99.90;;;;;;5075059;28;20402;-83
2023/05/09 02:50:43;;;;;;;3.70;3.40;;;13.70;99.90;;;;;;5075860;28;20474;-83
2023/05/09 02:53:08;;;;;;;4.40;3.50;;;12.90;99.90;;;;;;5058191;28;20386;-84
2023/05/09 02:55:34;;;;;;;4.03;3.73;;;12.70;99.90;;;;;;5056430;28;20824;-83
2023/05/09 02:58:00;;;;;;;5.83;3.50;;;12.50;99.90;;;;;;5057751;28;20411;-84
2023/05/09 03:00:25;;;;;;;4.70;3.70;;;12.40;99.90;;;;;;5080009;28;20418;-82
2023/05/09 03:02:51;;;;;;;4.30;3.40;;;13.50;99.90;;;;;;5064532;28;20406;-83
2023/05/09 03:05:17;;;;;;;3.55;3.00;;;12.40;99.90;;;;;;5078182;28;20396;-84
2023/05/09 03:07:43;;;;;;;3.92;3.45;;;12.40;99.90;;;;;;5059974;28;20396;-84
2023/05/09 03:10:12;;;;;;;5.88;3.80;;;14.80;99.90;;;;;;5059679;28;20794;-84
2023/05/09 03:12:38;;;;;;;5.57;3.60;;;13.30;99.90;;;;;;5078162;28;20390;-84
2023/05/09 03:15:07;;;;;;;3.60;3.00;;;12.70;99.90;;;;;;5059340;28;20392;-84
2023/05/09 03:17:33;;;;;;;3.40;3.17;;;12.60;99.90;;;;;;5059113;28;20418;-83
2023/05/09 03:19:58;;;;;;;4.53;3.70;;;12.20;99.90;;;;;;5059110;28;20456;-83
2023/05/09 03:22:24;;;;;;;5.82;3.38;;;12.60;99.90;;;;;;5060021;28;20382;-84
2023/05/09 03:24:49;;;;;;;3.57;3.20;;;12.10;99.90;;;;;;5076836;28;20388;-84
2023/05/09 03:27:15;;;;;;;3.80;3.50;;;12.50;99.90;;;;;;5058341;28;20383;-84
2023/05/09 03:29:40;;;;;;;4.00;3.60;;;12.10;99.90;;;;;;5058556;28;20383;-84
2023/05/09 03:32:06;;;;;;;3.70;3.40;;;12.50;99.90;;;;;;5059089;28;20392;-84
2023/05/09 03:34:31;;;;;;;3.50;3.13;;;12.40;99.90;;;;;;5077114;28;20372;-84
2023/05/09 03:36:57;;;;;;;3.33;3.10;;;12.60;99.90;;;;;;5078275;22;20435;-77
2023/05/09 03:39:23;;;;;;;3.10;2.90;;;12.80;99.90;;;;;;5073736;28;20431;-78
2023/05/09 03:41:48;;;;;;;4.25;3.40;;;12.40;99.90;;;;;;5074812;28;20765;-78
2023/05/09 03:44:14;;;;;;;5.43;3.40;;;12.60;99.90;;;;;;5056612;28;20480;-76
2023/05/09 03:46:39;;;;;;;3.07;2.87;;;12.80;99.90;;;;;;5047017;28;20383;-78
2023/05/09 03:49:05;;;;;;;4.30;3.10;;;12.30;99.90;;;;;;5054991;28;20381;-79
2023/05/09 03:51:31;;;;;;;4.50;3.10;;;12.50;99.90;;;;;;5048782;28;20393;-79
2023/05/09 03:53:57;;;;;;;4.30;3.70;;;12.30;99.90;;;;;;5054383;28;20759;-78
2023/05/09 03:56:22;;;;;;;3.63;3.33;;;12.50;99.90;;;;;;5062802;28;20395;-78
2023/05/09 03:58:48;;;;;;;3.90;3.50;;;12.10;99.90;;;;;;5074344;28;20491;-79
2023/05/09 04:01:14;;;;;;;4.70;3.20;;;12.60;99.90;;;;;;5075239;28;20376;-79
2023/05/09 04:03:40;;;;;;;3.45;3.15;;;12.50;99.90;;;;;;5074746;28;20379;-77
2023/05/09 04:06:06;;;;;;;3.70;3.40;;;12.70;99.90;;;;;;5064393;28;20421;-77
2023/05/09 04:08:32;;;;;;;4.73;3.13;;;12.70;99.90;;;;;;5074309;28;20384;-78
2023/05/09 04:10:57;;;;;;;6.43;3.40;;;12.60;99.90;;;;;;5073171;28;20384;-79
2023/05/09 04:13:23;;;;;;;3.97;3.57;;;12.50;99.90;;;;;;5055032;28;20477;-78
2023/05/09 04:15:49;;;;;;;4.00;3.60;;;12.60;99.90;;;;;;5053208;28;20400;-79
2023/05/09 04:18:14;;;;;;;3.70;3.40;;;12.70;99.90;;;;;;5036438;28;20405;-79
2023/05/09 04:20:40;;;;;;;4.90;3.80;;;12.50;99.90;;;;;;5053935;28;20377;-78
2023/05/09 04:23:05;;;;;;;4.00;3.70;;;12.30;99.90;;;;;;5071139;28;20766;-79
2023/05/09 04:25:31;;;;;;;4.50;4.10;;;12.60;99.90;;;;;;5072695;28;20398;-79
2023/05/09 04:27:56;;;;;;;4.90;4.50;;;12.30;99.90;;;;;;5073988;28;20398;-79
2023/05/09 04:30:25;;;;;;;4.22;3.92;;;12.60;99.90;;;;;;5045901;28;20539;-79
2023/05/09 04:32:52;;;;;;;4.30;4.00;;;12.50;99.90;;;;;;5045732;28;20397;-79
2023/05/09 04:35:19;;;;;;;5.68;4.05;;;12.80;99.90;;;;;;5048021;28;21221;-79
2023/05/09 04:37:45;;;;;;;4.25;3.72;;;12.60;99.90;;;;;;5073265;28;20471;-79
2023/05/09 04:40:11;;;;;;;4.40;4.00;;;12.70;99.90;;;;;;5069899;28;20438;-78
2023/05/09 04:42:37;;;;;;;4.10;3.80;;;12.80;99.90;;;;;;5067155;28;20372;-78
2023/05/09 04:45:03;;;;;;;3.60;3.30;;;12.60;99.90;;;;;;5055533;28;20384;-78
2023/05/09 04:47:29;;;;;;;4.55;3.70;;;12.80;99.90;;;;;;5072780;28;20383;-78
2023/05/09 04:49:54;;;;;;;4.37;3.77;;;12.60;99.90;;;;;;5054924;28;20758;-79
2023/05/09 04:52:20;;;;;;;4.20;3.90;;;12.50;99.90;;;;;;5073161;28;20745;-79
2023/05/09 04:54:45;;;;;;;5.85;3.92;;;12.60;99.90;;;;;;5055324;28;20413;-79
2023/05/09 04:57:11;;;;;;;4.30;3.90;;;13.00;99.90;;;;;;5054296;28;20376;-78
2023/05/09 04:59:36;;;;;;;4.23;3.93;;;12.80;99.90;;;;;;5071125;28;20372;-80
2023/05/09 05:02:02;;;;;;;4.93;3.90;;;12.50;99.90;;;;;;5064781;28;20874;-79
2023/05/09 05:04:28;;;;;;;6.05;3.70;;;12.90;99.90;;;;;;5076276;28;20387;-79
2023/05/09 05:06:53;;;;;;;6.50;3.80;;;13.10;99.90;;;;;;5083635;28;20396;-78
2023/05/09 05:09:19;;;;;;;4.10;3.70;;;13.00;99.90;;;;;;5080574;28;20384;-77
2023/05/09 05:11:45;;;;;;;5.22;3.80;;;13.10;99.90;;;;;;5085450;28;20410;-77
2023/05/09 05:14:10;;;;;;;7.10;4.10;;;13.10;99.90;;;;;;5085740;28;20384;-78
2023/05/09 05:16:36;;;;;;;4.00;3.70;;;12.90;99.90;;;;;;5075024;28;20392;-78
2023/05/09 05:19:02;;;;;;;4.00;3.70;;;13.40;99.90;;;;;;5075403;28;20403;-78
2023/05/09 05:21:27;;;;;;;4.60;3.70;;;13.20;99.90;;;;;;5063079;28;20390;-77
2023/05/09 05:23:53;;;;;;;4.68;4.18;;;13.50;99.90;;;;;;5085860;28;20406;-77
2023/05/09 05:26:18;;;;;;;7.10;3.90;;;13.60;99.90;;;;;;5084979;28;20391;-77
2023/05/09 05:28:44;;;;;;;3.87;3.23;;;13.20;99.90;;;;;;5078682;28;20551;-77
2023/05/09 05:31:10;;;;;;;3.70;3.30;;;13.50;99.90;;;;;;5058042;28;20535;-78
2023/05/09 05:33:35;;;;;;;4.40;4.00;;;13.50;99.90;;;;;;5055642;28;20382;-78
2023/05/09 05:36:01;;;;;;;3.60;3.30;;;13.90;99.90;;;;;;5053140;28;20829;-78
2023/05/09 05:38:26;;;;;;;4.40;3.70;;;13.40;99.90;;;;;;5060277;28;20399;-78
2023/05/09 05:40:52;;;;;;;4.53;3.75;;;13.60;99.90;;;;;;5054883;28;20388;-77
2023/05/09 05:43:17;;;;;;;4.67;3.70;;;13.70;99.90;;;;;;5073512;28;20392;-78
2023/05/09 05:45:43;;;;;;;4.50;4.10;;;13.80;99.90;;;;;;5072313;28;20387;-78
2023/05/09 05:48:08;;;;;;;3.60;3.30;;;13.80;99.90;;;;;;5054831;28;20419;-78
2023/05/09 05:50:35;;;;;;;3.93;3.50;;;14.00;99.90;;;;;;5056626;28;20428;-78
2023/05/09 05:53:01;;;;;;;3.85;3.45;;;13.80;99.90;;;;;;5055571;28;20393;-78
2023/05/09 05:55:26;;;;;;;3.43;3.13;;;13.70;99.90;;;;;;5053885;28;20385;-78
2023/05/09 05:57:52;;;;;;;4.03;3.70;;;14.00;99.90;;;;;;5066846;28;20496;-77
2023/05/09 06:00:17;;;;;;;4.90;3.47;;;14.10;99.90;;;;;;5081848;28;20419;-78
2023/05/09 06:02:44;;;;;;;4.30;3.90;;;14.30;99.90;;;;;;5062881;28;20411;-77
2023/05/09 06:05:10;;;;;;;5.60;3.40;;;14.50;99.90;;;;;;5088957;28;20404;-77
2023/05/09 06:07:35;;;;;;;3.60;3.30;;;14.40;99.90;;;;;;5092915;28;20403;-78
2023/05/09 06:10:01;;;;;;;3.77;3.47;;;14.40;99.90;;;;;;5082858;28;20967;-78
2023/05/09 06:12:26;;;;;;;3.90;3.40;;;14.10;99.90;;;;;;5086363;28;20451;-79
2023/05/09 06:14:52;;;;;;;3.70;3.30;;;14.20;99.90;;;;;;5097883;28;20425;-79
2023/05/09 06:17:18;;;;;;;3.97;3.43;;;14.60;99.90;;;;;;5077680;28;20427;-79
2023/05/09 06:19:43;;;;;;;3.70;3.30;;;14.60;99.90;;;;;;5077032;28;20437;-78
2023/05/09 06:22:09;;;;;;;3.45;3.15;;;14.80;99.90;;;;;;5077203;28;20467;-79
2023/05/09 06:24:34;;;;;;;3.77;3.47;;;14.40;99.90;;;;;;5077337;28;20379;-79
2023/05/09 06:27:00;;;;;;;3.40;3.10;;;14.20;99.90;;;;;;5045660;28;20425;-79
2023/05/09 06:29:25;;;;;;;4.78;3.10;;;15.00;99.90;;;;;;5076865;28;20403;-78
2023/05/09 06:31:51;;;;;;;3.33;2.63;;;14.90;99.90;;;;;;5077602;28;20386;-78
2023/05/09 06:34:16;;;;;;;2.80;2.60;;;15.30;99.90;;;;;;5084592;28;20766;-79
2023/05/09 06:36:42;;;;;;;3.15;2.67;;;15.40;99.90;;;;;;5083967;28;20452;-78
2023/05/09 06:39:07;;;;;;;3.60;2.40;;;15.30;99.90;;;;;;5085149;28;21104;-79
2023/05/09 06:41:33;;;;;;;2.40;2.20;;;15.40;99.90;;;;;;5086000;28;20385;-79
2023/05/09 06:44:01;;;;;;;3.43;2.43;;;15.40;99.90;;;;;;5084132;28;20960;-79
2023/05/09 06:46:26;;;;;;;2.45;2.25;;;15.40;99.90;;;;;;5063358;28;20403;-79
2023/05/09 06:48:52;;;;;;;2.50;2.30;;;15.50;99.90;;;;;;5085627;28;20386;-78
2023/05/09 06:51:17;;;;;;;2.70;2.30;;;15.60;99.90;;;;;;5086373;28;20395;-79
2023/05/09 06:53:43;;;;;;;3.17;2.45;;;15.10;99.90;;;;;;5064785;28;20892;-79
2023/05/09 06:56:08;;;;;;;2.80;2.60;;;15.90;99.90;;;;;;5085217;28;20813;-79
2023/05/09 06:58:35;;;;;;;3.90;2.50;;;15.90;99.90;;;;;;5086096;28;20431;-79
2023/05/09 07:01:00;;;;;;;3.40;2.40;;;15.80;99.90;;;;;;5092746;28;20388;-79
2023/05/09 07:03:26;;;;;;;2.72;2.53;;;15.90;99.90;;;;;;5069768;28;21020;-79
2023/05/09 07:05:51;;;;;;;2.70;2.50;;;16.00;99.90;;;;;;5092365;28;20401;-79
2023/05/09 07:08:17;;;;;;;3.90;2.60;;;16.10;99.90;;;;;;5079108;28;20443;-79
2023/05/09 07:10:42;;;;;;;3.50;2.53;;;16.10;99.90;;;;;;5079180;28;20398;-79
2023/05/09 07:13:08;;;;;;;2.50;2.30;;;16.20;99.90;;;;;;5083722;28;20392;-79
2023/05/09 07:15:33;;;;;;;2.70;2.50;;;16.00;99.90;;;;;;5058381;28;20396;-79
2023/05/09 07:17:59;;;;;;;3.95;2.40;;;16.20;99.90;;;;;;5058622;28;20410;-78
2023/05/09 07:20:24;;;;;;;2.50;2.30;;;15.80;99.90;;;;;;5075195;28;20411;-79
2023/05/09 07:22:50;;;;;;;2.70;2.50;;;16.20;99.90;;;;;;5057111;28;20383;-79
2023/05/09 07:25:15;;;;;;;2.90;2.70;;;16.70;99.90;;;;;;5038513;28;20394;-78
2023/05/09 07:27:41;;;;;;;2.70;2.33;;;16.40;99.90;;;;;;5055676;28;20384;-79
2023/05/09 07:30:08;;;;;;;3.72;2.50;;;16.80;99.90;;;;;;5038261;28;20397;-79
2023/05/09 07:32:34;;;;;;;2.50;2.30;;;16.50;99.90;;;;;;5063400;28;20393;-79
2023/05/09 07:34:59;;;;;;;2.97;2.78;;;16.50;99.90;;;;;;5056281;28;20910;-78
2023/05/09 07:37:25;;;;;;;4.10;2.60;;;16.50;99.90;;;;;;5054861;28;20408;-79
2023/05/09 07:39:51;;;;;;;5.30;2.80;;;16.10;99.90;;;;;;5038296;28;20869;-77
2023/05/09 07:42:16;;;;;;;2.67;2.47;;;16.60;99.90;;;;;;5062834;28;20423;-78
2023/05/09 07:44:42;;;;;;;3.10;2.30;;;16.60;99.90;;;;;;5078818;28;20822;-78
2023/05/09 07:47:08;;;;;;;2.70;2.50;;;16.70;99.90;;;;;;5075475;28;20402;-77
2023/05/09 07:49:34;;;;;;;2.70;2.50;;;16.90;99.90;;;;;;5060994;28;20887;-78
2023/05/09 07:51:59;;;;;;;3.00;2.50;;;16.60;99.90;;;;;;5038478;28;21069;-78
2023/05/09 07:54:25;;;;;;;3.60;2.15;;;16.70;99.90;;;;;;5056068;28;20389;-78
2023/05/09 07:56:51;;;;;;;2.10;2.00;;;17.10;99.90;;;;;;5054808;28;20384;-78
2023/05/09 07:59:17;;;;;;;3.08;2.47;;;17.30;99.90;;;;;;5058268;28;20397;-78
2023/05/09 08:01:43;;;;;;;2.20;2.00;;;17.30;99.90;;;;;;5038079;28;20476;-78
2023/05/09 08:04:08;;;;;;;2.10;2.00;;;17.00;99.90;;;;;;5037400;28;20969;-77
2023/05/09 08:06:34;;;;;;;2.20;2.00;;;17.50;99.90;;;;;;5093814;28;20445;-77
2023/05/09 08:09:00;;;;;;;2.13;1.92;;;17.30;99.90;;;;;;5063512;28;20396;-77
2023/05/09 08:11:26;;;;;;;1.80;1.70;;;17.60;99.90;;;;;;5057096;28;20399;-78
2023/05/09 08:13:52;;;;;;;2.00;1.90;;;17.60;99.90;;;;;;5057513;28;20392;-78
2023/05/09 08:16:18;;;;;;;2.15;1.88;;;17.60;99.90;;;;;;5059647;28;20397;-78
2023/05/09 08:18:43;;;;;;;2.60;1.42;;;17.60;99.90;;;;;;5055751;28;20763;-78
2023/05/09 08:21:09;;;;;;;1.50;1.40;;;16.90;99.90;;;;;;5055609;28;20386;-78
2023/05/09 08:23:34;;;;;;;1.70;1.60;;;19.20;99.90;;;;;;5055198;28;20795;-78
2023/05/09 08:26:00;;;;;;;1.45;1.35;;;17.50;99.90;;;;;;5066071;28;20762;-78
2023/05/09 08:28:27;;;;;;;1.33;1.23;;;18.00;99.90;;;;;;5075071;28;20769;-78
2023/05/09 08:30:53;;;;;;;2.00;1.40;;;18.30;99.90;;;;;;5043934;28;20435;-78
2023/05/09 08:33:18;;;;;;;1.50;1.40;;;17.90;99.90;;;;;;5054321;28;20871;-78
2023/05/09 08:35:44;;;;;;;1.50;1.40;;;17.30;99.90;;;;;;5054306;28;20431;-78
2023/05/09 08:38:10;;;;;;;1.70;1.60;;;17.20;99.90;;;;;;5055281;28;20401;-78
2023/05/09 08:40:36;;;;;;;1.53;1.40;;;17.90;99.90;;;;;;5065240;28;20404;-77
2023/05/09 08:43:06;;;;;;;1.88;1.77;;;19.30;99.90;;;;;;5056951;28;20372;-78
2023/05/09 08:45:35;;;;;;;1.80;1.70;;;18.10;99.90;;;;;;5059399;28;20447;-78
2023/05/09 08:48:05;;;;;;;2.60;2.00;;;18.20;99.90;;;;;;5054462;28;20381;-78
2023/05/09 08:50:31;;;;;;;2.30;2.10;;;18.50;99.90;;;;;;5041883;28;20926;-78
2023/05/09 08:52:57;;;;;;;2.15;1.95;;;18.30;99.90;;;;;;5063171;28;20883;-77
2023/05/09 08:55:23;;;;;;;2.70;2.50;;;19.00;99.90;;;;;;5076480;28;20467;-76
2023/05/09 08:57:50;;;;;;;2.50;2.30;;;19.50;99.90;;;;;;5079377;28;20400;-78
2023/05/09 09:00:19;;;;;;;2.20;2.00;;;20.00;99.90;;;;;;5073748;28;20488;-78
2023/05/09 09:02:45;;;;;;;2.53;2.30;;;18.20;99.90;;;;;;5055120;28;20440;-78
2023/05/09 09:05:10;;;;;;;2.70;2.10;;;19.40;99.90;;;;;;5070551;28;20390;-78
2023/05/09 09:07:38;;;;;;;2.60;2.40;;;18.50;99.90;;;;;;5094598;28;20398;-79
2023/05/09 09:10:04;;;;;;;2.40;2.20;;;18.60;99.90;;;;;;5095310;28;20382;-78
2023/05/09 09:12:31;;;;;;;3.22;2.50;;;18.80;99.90;;;;;;5073778;28;20384;-78
2023/05/09 09:15:03;;;;;;;3.25;2.67;;;18.50;99.90;;;;;;5074730;28;20749;-79
2023/05/09 09:17:30;;;;;;;3.25;2.88;;;19.70;99.90;;;;;;5073897;28;20430;-79
2023/05/09 09:19:59;;;;;;;2.80;2.60;;;19.00;99.90;;;;;;5051883;28;20909;-79
2023/05/09 09:22:32;;;;;;;3.50;3.20;;;18.70;99.90;;;;;;5062617;28;20396;-78
2023/05/09 09:24:58;;;;;;;3.15;2.85;;;;;;;;;;5073685;28;20391;-79
2023/05/09 09:27:24;;;;;;;3.60;2.80;;;18.90;99.90;;;;;;5055439;28;20379;-78
2023/05/09 09:29:50;;;;;;;2.80;2.60;;;18.20;99.90;;;;;;5071441;28;20856;-78
2023/05/09 09:32:17;;;;;;;3.70;3.40;;;18.90;99.90;;;;;;5054499;28;20443;-78
2023/05/09 09:34:42;;;;;;;3.10;2.90;;;18.90;99.90;;;;;;5036561;28;20437;-78
2023/05/09 09:37:08;;;;;;;3.10;2.90;;;;;;;;;;5127794;22;20814;-79
2023/05/09 09:39:34;;;;;;;2.92;2.72;;;19.50;99.90;;;;;;5116197;28;20401;-80
2023/05/09 09:42:12;;;;;;;3.40;3.10;;;19.30;99.90;;;;;;5086194;28;20401;-80
2023/05/09 09:44:37;;;;;;;3.80;3.50;;;21.70;99.90;;;;;;5104630;28;20412;-80
2023/05/09 09:47:06;;;;;;;3.80;3.50;;;19.10;99.90;;;;;;5102374;28;20382;-80
2023/05/09 09:49:31;;;;;;;3.17;2.80;;;19.00;99.90;;;;;;5102148;28;20401;-79
2023/05/09 09:51:57;;;;;;;7.57;3.07;;;18.50;99.90;;;;;;5123776;28;20387;-80
2023/05/09 09:54:26;;;;;;;3.67;3.38;;;20.90;99.90;;;;;;5124796;28;20411;-80
2023/05/09 09:56:53;;;;;;;4.60;4.20;;;22.30;99.90;;;;;;5124051;28;20384;-80
2023/05/09 09:59:26;;;;;;;4.25;3.83;;;19.40;99.90;;;;;;5106927;28;20914;-80
2023/05/09 10:02:03;;;;;;;4.23;3.90;;;19.40;99.90;;;;;;5088155;28;20386;-79
2023/05/09 10:04:34;;;;;;;3.80;3.50;;;18.60;99.90;;;;;;5105114;28;20389;-80
2023/05/09 10:07:05;;;;;;;3.90;3.60;;;19.30;99.90;;;;;;5105010;28;20373;-80
2023/05/09 10:09:31;;;;;;;3.72;3.42;;;18.80;99.90;;;;;;5106385;28;20467;-80
2023/05/09 10:12:05;;;;;;;4.00;3.70;;;20.90;99.90;;;;;;5103769;28;20756;-80
2023/05/09 10:14:31;;;;;;;3.80;3.50;;;19.50;99.90;;;;;;5085394;28;20397;-80
2023/05/09 10:16:59;;;;;;;4.35;3.95;;;19.30;99.90;;;;;;5101382;28;20382;-80
2023/05/09 10:19:28;;;;;;;4.40;4.00;;;19.50;99.90;;;;;;5083139;28;20473;-79
2023/05/09 10:22:01;;;;;;;7.70;4.03;;;22.50;99.90;;;;;;5102519;28;20380;-80
2023/05/09 10:24:33;;;;;;;4.82;4.40;;;22.70;99.90;;;;;;5127688;28;20387;-80
2023/05/09 10:27:03;;;;;;;4.05;3.58;;;20.10;99.90;;;;;;5091613;28;20393;-80
2023/05/09 10:29:33;;;;;;;3.42;3.13;;;18.90;99.90;;;;;;5080857;28;20390;-79
2023/05/09 10:31:59;;;;;;;3.40;3.20;;;22.30;99.90;;;;;;5083810;28;20398;-80
2023/05/09 10:34:27;;;;;;;4.43;3.67;;;20.20;99.90;;;;;;5102293;28;20390;-80
2023/05/09 10:36:53;;;;;;;3.70;3.10;;;19.50;99.90;;;;;;5110335;28;20407;-79
2023/05/09 10:39:19;;;;;;;4.22;3.50;;;19.70;99.90;;;;;;5089033;28;20402;-79
2023/05/09 10:41:48;;;;;;;3.90;2.80;;;20.00;99.90;;;;;;5080982;28;20394;-79
2023/05/09 10:44:14;;;;;;;3.50;3.20;;;19.00;99.90;;;;;;5081648;28;20393;-80
2023/05/09 10:46:40;;;;;;;2.88;2.60;;;22.70;99.90;;;;;;5101650;28;20374;-80
2023/05/09 10:49:06;;;;;;;2.67;2.47;;;19.60;99.90;;;;;;5109939;28;20392;-80
2023/05/09 10:51:32;;;;;;;3.75;2.90;;;19.30;95.20;;;;;;5103226;28;20739;-80
2023/05/09 10:53:58;;;;;;;3.00;2.80;;;19.40;99.90;;;;;;5120661;28;20403;-80
2023/05/09 10:56:31;;;;;;;3.15;2.85;;;19.70;99.90;;;;;;5086105;28;20386;-80
2023/05/09 10:58:57;;;;;;;2.87;2.67;;;19.20;99.90;;;;;;5104889;28;20398;-79
2023/05/09 11:01:31;;;;;;;3.05;2.85;;;;;;;;;;5088014;28;20378;-80
2023/05/09 11:03:58;;;;;;;3.20;2.90;;;20.00;99.90;;;;;;5088411;28;20378;-80
2023/05/09 11:06:50;;;;;;;2.70;2.50;;;19.70;99.90;;;;;;5089259;28;20393;-81
2023/05/09 11:09:36;;;;;;;2.80;2.60;;;20.20;99.90;;;;;;5104169;28;20378;-80
2023/05/09 11:12:12;;;;;;;2.90;2.70;;;20.40;98.30;;;;;;5086577;28;20435;-80
2023/05/09 11:14:48;;;;;;;2.43;2.23;;;20.10;88.30;;;;;;5113952;28;20448;-81
2023/05/09 11:17:20;;;;;;;3.33;2.60;;;20.50;99.90;;;;;;5126132;28;20418;-80
2023/05/09 11:19:46;;;;;;;2.80;2.60;;;20.40;99.90;;;;;;5108110;28;20426;-80
2023/05/09 11:22:18;;;;;;;3.50;2.50;;;20.70;89.80;;;;;;5126197;28;20385;-81
2023/05/09 11:24:48;;;;;;;2.80;2.60;;;20.90;55.20;;;;;;5099835;28;20432;-80
2023/05/09 11:27:15;;;;;;;2.63;2.42;;;23.00;56.40;;;;;;5086778;28;20378;-80
2023/05/09 11:29:48;;;;;;;2.77;2.40;;;20.00;55.20;;;;;;5105803;28;20389;-80
2023/05/09 11:32:14;;;;;;;2.97;2.67;;;;;;;;;;5107834;28;20466;-80
2023/05/09 11:34:42;;;;;;;3.10;2.80;;;20.90;37.20;;;;;;5126209;28;20377;-80
2023/05/09 11:37:10;;;;;;;3.60;2.60;;;20.40;64.90;;;;;;5107712;28;20433;-80
2023/05/09 11:39:54;;;;;;;2.50;2.30;;;21.50;58.20;;;;;;5128630;28;20886;-80
2023/05/09 11:42:21;;;;;;;2.50;2.25;;;24.00;63.20;;;;;;5123936;28;20448;-80
2023/05/09 11:44:47;;;;;;;3.77;2.00;;;21.50;48.30;;;;;;5107337;28;20382;-79
2023/05/09 11:47:13;;;;;;;3.50;2.20;;;21.00;27.10;;;;;;5089461;28;20393;-80
2023/05/09 11:49:42;;;;;;;2.40;2.20;;;20.20;31.20;;;;;;5108608;28;20463;-80
2023/05/09 11:52:08;;;;;;;2.10;2.00;;;20.70;35.90;;;;;;5126890;28;20453;-79
2023/05/09 11:54:37;;;;;;;2.10;1.90;;;21.70;36.00;;;;;;5127217;28;20380;-80
2023/05/09 11:57:04;;;;;;;2.83;2.33;;;21.40;56.50;;;;;;5107372;28;20384;-80
2023/05/09 11:59:30;;;;;;;2.07;1.97;;;21.60;26.50;;;;;;5086951;28;20413;-80
2023/05/09 12:01:55;;;;;;;2.60;2.40;;;24.40;36.50;;;;;;5088241;28;20382;-80
2023/05/09 12:04:21;;;;;;;2.05;1.92;;;22.40;30.60;;;;;;5088855;28;20382;-80
2023/05/09 12:06:49;;;;;;;1.80;1.70;;;21.80;24.80;;;;;;5122880;28;20404;-82
2023/05/09 12:09:15;;;;;;;3.00;1.98;;;24.30;35.00;;;;;;5115202;28;20392;-81
2023/05/09 12:11:48;;;;;;;1.90;1.80;;;22.50;42.10;;;;;;5125451;28;20376;-82
2023/05/09 12:14:26;;;;;;;1.90;1.80;;;24.00;44.00;;;;;;5125613;28;20410;-81
2023/05/09 12:16:51;;;;;;;1.92;1.77;;;22.10;27.30;;;;;;5088680;28;20394;-81
2023/05/09 12:19:18;;;;;;;2.60;2.20;;;24.80;22.00;;;;;;5105361;28;20428;-81
2023/05/09 12:21:43;;;;;;;2.15;1.95;;;21.90;18.20;;;;;;5086658;28;20406;-81
2023/05/09 12:24:09;;;;;;;2.10;1.90;;;20.50;21.90;;;;;;5097060;28;20399;-81
2023/05/09 12:26:34;;;;;;;1.70;1.60;;;21.70;23.00;;;;;;5107617;28;20380;-81
2023/05/09 12:29:00;;;;;;;1.90;1.70;;;21.90;15.60;;;;;;5125458;28;20445;-81
2023/05/09 12:31:26;;;;;;;2.90;1.90;;;21.50;21.40;;;;;;5108260;28;20437;-81
2023/05/09 12:33:53;;;;;;;1.70;1.60;;;21.00;20.10;;;;;;5098950;28;20430;-81
2023/05/09 12:36:18;;;;;;;1.90;1.80;;;25.10;20.50;;;;;;5087875;28;20394;-81
2023/05/09 12:38:54;;;;;;;1.93;1.70;;;24.40;20.60;;;;;;5125169;28;20408;-80
2023/05/09 12:41:20;;;;;;;1.80;1.60;;;25.30;11.30;;;;;;5125225;28;20387;-81
2023/05/09 12:43:50;;;;;;;1.70;1.50;;;22.10;7.00;;;;;;5125181;28;20420;-80
2023/05/09 12:46:20;;;;;;;1.75;1.65;;;22.50;7.30;;;;;;5104340;28;20819;-81
2023/05/09 12:48:49;;;;;;;1.90;1.70;;;22.90;9.20;;;;;;5086097;28;20398;-81